createdAt,value
2019-01-03T00:01:59.374Z,8.03
2019-01-03T00:05:27.109Z,8.10
2019-01-03T00:08:36.099Z,11.00
2019-01-03T00:11:44.635Z,8.50
2019-01-03T00:14:53.537Z,8.00
2019-01-03T00:18:02.112Z,7.97
2019-01-03T00:21:10.557Z,8.70
2019-01-03T00:24:19.404Z,8.90
2019-01-03T00:27:28.158Z,7.60
2019-01-03T00:30:36.743Z,9.07
2019-01-03T00:33:45.200Z,11.10
2019-01-03T00:36:53.909Z,8.97
2019-01-03T00:40:02.842Z,8.60
2019-01-03T00:43:05.477Z,9.43
2019-01-03T00:46:15.128Z,7.93
2019-01-03T00:49:23.880Z,8.23
2019-01-03T00:52:32.492Z,7.83
2019-01-03T00:55:41.249Z,7.97
2019-01-03T00:58:49.688Z,10.13
2019-01-03T01:01:58.268Z,8.60
2019-01-03T01:05:07.105Z,11.23
2019-01-03T01:08:15.585Z,9.97
2019-01-03T01:11:24.351Z,8.60
2019-01-03T01:14:33.405Z,7.70
2019-01-03T01:17:55.147Z,8.50
2019-01-03T01:21:23.037Z,8.93
2019-01-03T01:24:31.115Z,8.70
2019-01-03T01:27:39.596Z,8.37
2019-01-03T01:30:48.645Z,8.13
2019-01-03T01:33:57.600Z,10.00
2019-01-03T01:37:06.754Z,8.70
2019-01-03T01:40:15.503Z,8.10
2019-01-03T01:43:23.961Z,8.33
2019-01-03T01:46:33.472Z,10.63
2019-01-03T01:49:41.965Z,8.17
2019-01-03T01:52:50.990Z,8.23
2019-01-03T01:55:59.848Z,9.03
2019-01-03T01:59:08.616Z,9.20
2019-01-03T02:02:17.803Z,9.63
2019-01-03T02:05:26.721Z,8.10
2019-01-03T02:08:35.920Z,8.27
2019-01-03T02:11:44.719Z,9.30
2019-01-03T02:14:53.814Z,9.23
2019-01-03T02:18:03.598Z,8.37
2019-01-03T02:21:12.113Z,8.13
2019-01-03T02:24:20.547Z,11.07
2019-01-03T02:27:29.473Z,7.80
2019-01-03T02:30:38.160Z,8.60
2019-01-03T02:33:46.862Z,10.63
2019-01-03T02:36:55.286Z,8.87
2019-01-03T02:40:03.113Z,8.37
2019-01-03T02:43:12.100Z,9.30
2019-01-03T02:46:21.031Z,7.90
2019-01-03T02:49:29.511Z,10.10
2019-01-03T02:52:38.209Z,8.50
2019-01-03T02:55:46.713Z,8.07
2019-01-03T02:58:55.423Z,9.00
2019-01-03T03:02:04.110Z,8.30
2019-01-03T03:05:13.369Z,8.60
2019-01-03T03:08:22.071Z,9.83
2019-01-03T03:11:30.832Z,8.07
2019-01-03T03:14:40.081Z,10.00
2019-01-03T03:17:46.975Z,8.23
2019-01-03T03:20:55.488Z,8.00
2019-01-03T03:27:31.626Z,8.27
2019-01-03T03:30:40.308Z,8.90
2019-01-03T03:33:49.003Z,8.07
2019-01-03T03:36:57.915Z,8.80
2019-01-03T03:40:07.427Z,8.50
2019-01-03T03:43:16.925Z,8.67
2019-01-03T03:46:26.295Z,9.50
2019-01-03T03:49:35.578Z,8.23
2019-01-03T03:52:44.451Z,10.37
2019-01-03T03:55:52.954Z,8.40
2019-01-03T03:59:01.885Z,9.83
2019-01-03T04:02:10.397Z,8.13
2019-01-03T04:05:18.911Z,9.53
2019-01-03T04:08:27.864Z,11.87
2019-01-03T04:11:36.807Z,10.20
2019-01-03T04:14:45.575Z,7.80
2019-01-03T04:17:54.517Z,8.03
2019-01-03T04:21:03.219Z,11.40
2019-01-03T04:24:11.783Z,9.43
2019-01-03T04:27:11.619Z,8.93
2019-01-03T04:30:20.337Z,8.03
2019-01-03T04:33:29.760Z,8.60
2019-01-03T04:36:28.838Z,8.30
2019-01-03T04:39:37.664Z,8.30
2019-01-03T04:42:46.112Z,9.20
2019-01-03T04:45:54.630Z,9.93
2019-01-03T04:49:03.079Z,9.53
2019-01-03T04:52:12.066Z,8.33
2019-01-03T04:55:21.459Z,11.27
2019-01-03T04:58:29.939Z,12.00
2019-01-03T05:02:16.735Z,8.73
2019-01-03T05:05:28.512Z,8.57
2019-01-03T05:08:36.956Z,8.23
2019-01-03T05:11:45.463Z,9.03
2019-01-03T05:14:54.728Z,8.73
2019-01-03T05:18:03.019Z,11.27
2019-01-03T05:21:12.437Z,8.23
2019-01-03T05:24:22.245Z,8.83
2019-01-03T05:27:30.701Z,8.73
2019-01-03T05:30:39.534Z,8.70
2019-01-03T05:33:48.254Z,10.03
2019-01-03T05:36:57.189Z,9.30
2019-01-03T05:40:06.457Z,8.47
2019-01-03T05:43:13.346Z,8.47
2019-01-03T05:46:22.181Z,8.23
2019-01-03T05:49:31.745Z,10.63
2019-01-03T05:52:40.691Z,8.70
2019-01-03T05:55:49.402Z,8.40
2019-01-03T05:58:58.129Z,9.27
2019-01-03T06:02:07.682Z,9.10
2019-01-03T06:05:16.378Z,8.13
2019-01-03T06:08:25.762Z,8.47
2019-01-03T06:11:34.529Z,9.30
2019-01-03T06:14:43.029Z,9.87
2019-01-03T06:17:51.617Z,9.70
2019-01-03T06:21:00.395Z,9.40
2019-01-03T06:24:09.112Z,8.07
2019-01-03T06:27:17.836Z,9.10
2019-01-03T06:30:26.513Z,8.20
2019-01-03T06:33:35.006Z,8.43
2019-01-03T06:36:44.399Z,8.43
2019-01-03T06:39:47.539Z,8.40
2019-01-03T06:42:50.166Z,11.20
2019-01-03T06:45:58.628Z,9.03
2019-01-03T06:49:08.795Z,10.13
2019-01-03T06:52:17.284Z,8.87
2019-01-03T06:55:26.334Z,9.07
2019-01-03T06:58:35.042Z,9.27
2019-01-03T07:01:43.722Z,8.20
2019-01-03T07:04:52.165Z,8.73
2019-01-03T07:08:00.865Z,9.10
2019-01-03T07:11:10.576Z,8.83
2019-01-03T07:14:20.198Z,8.60
2019-01-03T07:17:28.959Z,8.30
2019-01-03T07:20:38.185Z,9.03
2019-01-03T07:23:46.921Z,9.20
2019-01-03T07:26:55.595Z,9.63
2019-01-03T07:30:04.615Z,8.80
2019-01-03T07:33:14.489Z,8.87
2019-01-03T07:36:23.379Z,9.13
2019-01-03T07:39:32.231Z,8.93
2019-01-03T07:42:41.154Z,8.50
2019-01-03T07:45:50.180Z,9.60
2019-01-03T07:48:58.777Z,8.13
2019-01-03T07:52:07.835Z,8.07
2019-01-03T07:55:08.687Z,8.23
2019-01-03T07:58:18.466Z,10.37
2019-01-03T08:01:28.165Z,9.27
2019-01-03T08:04:36.943Z,9.63
2019-01-03T08:07:46.418Z,8.30
2019-01-03T08:10:56.840Z,8.80
2019-01-03T08:14:06.425Z,8.70
2019-01-03T08:17:15.745Z,11.17
2019-01-03T08:20:24.916Z,9.10
2019-01-03T08:23:33.848Z,9.33
2019-01-03T08:26:42.803Z,8.07
2019-01-03T08:29:51.422Z,8.37
2019-01-03T08:33:00.684Z,8.13
2019-01-03T08:36:09.592Z,9.47
2019-01-03T08:39:18.045Z,8.73
2019-01-03T08:42:26.997Z,9.50
2019-01-03T08:45:35.926Z,8.50
2019-01-03T08:48:44.747Z,13.33
2019-01-03T08:51:53.856Z,8.40
2019-01-03T08:55:02.556Z,9.07
2019-01-03T08:58:11.850Z,9.97
2019-01-03T09:01:21.664Z,9.30
2019-01-03T09:04:30.849Z,8.37
2019-01-03T09:07:39.893Z,8.87
2019-01-03T09:10:48.351Z,8.90
2019-01-03T09:13:57.077Z,8.73
2019-01-03T09:17:05.602Z,10.03
2019-01-03T09:20:14.345Z,8.93
2019-01-03T09:23:23.117Z,9.50
2019-01-03T09:26:32.893Z,10.50
2019-01-03T09:29:36.865Z,11.33
2019-01-03T09:32:45.682Z,7.70
2019-01-03T09:35:54.326Z,8.20
2019-01-03T09:39:02.775Z,8.97
2019-01-03T09:42:12.045Z,8.70
2019-01-03T09:45:01.748Z,8.57
2019-01-03T09:47:51.913Z,12.33
2019-01-03T09:50:41.780Z,9.23
2019-01-03T09:53:31.431Z,12.93
2019-01-03T09:56:53.504Z,9.10
2019-01-03T09:59:31.998Z,8.23
2019-01-03T10:02:23.085Z,9.93
2019-01-03T10:05:12.954Z,10.77
2019-01-03T10:08:02.700Z,8.40
2019-01-03T10:10:52.299Z,8.60
2019-01-03T10:14:01.051Z,8.57
2019-01-03T10:16:50.732Z,8.60
2019-01-03T10:19:40.767Z,8.10
2019-01-03T10:22:30.478Z,8.13
2019-01-03T10:25:19.996Z,10.13
2019-01-03T10:28:09.752Z,9.10
2019-01-03T10:30:59.688Z,9.03
2019-01-03T10:33:52.794Z,10.73
2019-01-03T10:36:43.002Z,8.33
2019-01-03T10:39:32.951Z,8.40
2019-01-03T10:42:22.650Z,8.67
2019-01-03T10:45:31.995Z,8.90
2019-01-03T10:48:21.677Z,8.70
2019-01-03T10:51:11.690Z,9.60
2019-01-03T10:54:01.932Z,9.53
2019-01-03T10:57:10.843Z,9.80
2019-01-03T11:00:00.740Z,8.70
2019-01-03T11:02:50.923Z,8.57
2019-01-03T11:05:40.946Z,8.77
2019-01-03T11:08:30.660Z,9.47
2019-01-03T11:11:20.596Z,9.93
2019-01-03T11:17:07.062Z,8.60
2019-01-03T11:19:56.805Z,8.27
2019-01-03T11:22:49.411Z,8.40
2019-01-03T11:25:38.869Z,8.67
2019-01-03T11:28:30.644Z,10.13
2019-01-03T11:31:20.162Z,8.63
2019-01-03T11:34:09.653Z,13.57
2019-01-03T11:37:00.595Z,8.60
2019-01-03T11:39:50.277Z,9.60
2019-01-03T11:42:39.848Z,7.63
2019-01-03T11:45:48.993Z,8.87
2019-01-03T11:48:38.697Z,8.87
2019-01-03T11:51:29.180Z,8.43
2019-01-03T11:54:19.699Z,8.40
2019-01-03T11:57:12.476Z,9.80
2019-01-03T12:03:19.465Z,8.23
2019-01-03T12:06:09.469Z,7.80
2019-01-03T12:08:59.200Z,7.83
2019-01-03T12:11:49.737Z,12.20
2019-01-03T12:14:39.435Z,8.10
2019-01-03T12:17:29.424Z,11.30
2019-01-03T12:20:19.402Z,8.07
2019-01-03T12:23:08.865Z,8.77
2019-01-03T12:26:17.762Z,13.13
2019-01-03T12:29:09.059Z,10.53
2019-01-03T12:31:59.095Z,8.90
2019-01-03T12:35:00.227Z,8.60
2019-01-03T12:37:50.278Z,7.67
2019-01-03T12:40:40.189Z,8.83
2019-01-03T12:43:29.947Z,7.90
2019-01-03T12:46:21.034Z,10.07
2019-01-03T12:49:11.666Z,9.33
2019-01-03T12:52:01.815Z,8.83
2019-01-03T12:54:51.841Z,10.30
2019-01-03T12:58:02.690Z,9.57
2019-01-03T13:00:52.936Z,7.70
2019-01-03T13:03:43.658Z,8.60
2019-01-03T13:06:34.994Z,8.87
2019-01-03T13:09:43.992Z,11.00
2019-01-03T13:12:34.018Z,9.23
2019-01-03T13:15:23.460Z,9.23
2019-01-03T13:18:32.314Z,7.57
2019-01-03T13:21:22.232Z,9.07
2019-01-03T13:24:12.120Z,7.43
2019-01-03T13:27:02.173Z,6.97
2019-01-03T13:30:12.549Z,7.00
2019-01-03T13:36:31.381Z,7.53
2019-01-03T13:42:51.369Z,7.57
2019-01-03T13:45:41.047Z,10.83
2019-01-03T13:48:31.072Z,7.73
2019-01-03T13:51:21.014Z,7.40
2019-01-03T13:54:10.849Z,7.40
2019-01-03T13:57:01.317Z,11.57
2019-01-03T13:59:50.853Z,8.30
2019-01-03T14:02:40.959Z,9.60
2019-01-03T14:05:32.993Z,8.13
2019-01-03T14:08:42.198Z,8.40
2019-01-03T14:14:40.202Z,9.83
2019-01-03T14:17:49.340Z,8.73
2019-01-03T14:20:39.039Z,8.30
2019-01-03T14:23:28.984Z,8.23
2019-01-03T14:26:19.093Z,9.67
2019-01-03T14:29:10.115Z,8.80
2019-01-03T14:32:21.811Z,9.47
2019-01-03T14:35:11.623Z,8.20
2019-01-03T14:38:01.563Z,7.80
2019-01-03T14:40:51.560Z,8.30
2019-01-03T14:43:41.302Z,12.57
2019-01-03T14:46:30.997Z,9.70
2019-01-03T14:49:21.905Z,8.90
2019-01-03T14:52:52.266Z,9.67
2019-01-03T14:55:42.426Z,10.70
2019-01-03T14:58:31.873Z,9.30
2019-01-03T15:01:22.652Z,10.50
2019-01-03T15:04:12.817Z,9.37
2019-01-03T15:07:02.838Z,13.17
2019-01-03T15:09:53.308Z,10.23
2019-01-03T15:12:43.005Z,9.70
2019-01-03T15:15:33.101Z,9.40
2019-01-03T15:18:23.175Z,9.57
2019-01-03T15:21:13.934Z,11.23
2019-01-03T15:24:03.925Z,12.30
2019-01-03T15:27:16.096Z,12.30
2019-01-03T15:30:07.197Z,9.60
2019-01-03T15:33:00.362Z,12.33
2019-01-03T15:35:51.243Z,9.43
2019-01-03T15:38:41.327Z,9.97
2019-01-03T15:41:31.290Z,9.80
2019-01-03T15:44:21.532Z,9.60
2019-01-03T15:47:11.016Z,12.60
2019-01-03T15:50:01.003Z,9.63
2019-01-03T15:52:50.901Z,10.40
2019-01-03T15:55:40.342Z,9.47
2019-01-03T15:58:30.660Z,10.80
2019-01-03T16:01:20.803Z,9.27
2019-01-03T16:04:10.238Z,10.87
2019-01-03T16:07:00.232Z,9.33
2019-01-03T16:10:09.346Z,11.77
2019-01-03T16:12:59.761Z,9.63
2019-01-03T16:15:49.978Z,9.60
2019-01-03T16:18:40.259Z,11.97
2019-01-03T16:21:29.974Z,8.73
2019-01-03T16:24:21.324Z,9.67
2019-01-03T16:27:10.930Z,10.10
2019-01-03T16:30:00.494Z,15.90
2019-01-03T16:32:50.220Z,9.97
2019-01-03T16:35:39.942Z,11.10
2019-01-03T16:38:30.109Z,8.70
2019-01-03T16:41:18.158Z,9.77
2019-01-03T16:44:07.933Z,10.97
2019-01-03T16:46:58.206Z,12.60
2019-01-03T16:49:47.999Z,9.80
2019-01-03T16:52:37.784Z,9.93
2019-01-03T16:55:27.722Z,9.47
2019-01-03T16:58:17.690Z,9.43
2019-01-03T17:01:07.411Z,9.30
2019-01-03T17:03:57.153Z,10.63
2019-01-03T17:06:47.130Z,11.40
2019-01-03T17:09:36.846Z,11.10
2019-01-03T17:12:26.884Z,12.03
2019-01-03T17:15:16.910Z,11.23
2019-01-03T17:18:07.570Z,9.47
2019-01-03T17:20:58.135Z,10.43
2019-01-03T17:23:48.325Z,15.33
2019-01-03T17:26:38.810Z,10.87
2019-01-03T17:29:29.096Z,11.73
2019-01-03T17:32:19.072Z,9.47
2019-01-03T17:35:10.509Z,9.73
2019-01-03T17:37:59.854Z,11.00
2019-01-03T17:40:49.627Z,9.70
2019-01-03T17:43:39.450Z,14.17
2019-01-03T17:46:29.891Z,9.40
2019-01-03T17:49:19.364Z,12.23
2019-01-03T17:52:28.279Z,9.77
2019-01-03T17:55:17.979Z,10.23
2019-01-03T17:58:07.735Z,11.40
2019-01-03T18:00:57.761Z,9.87
2019-01-03T18:03:47.506Z,10.23
2019-01-03T18:06:37.234Z,12.63
2019-01-03T18:09:26.773Z,10.57
2019-01-03T18:12:16.311Z,10.27
2019-01-03T18:15:06.895Z,12.90
2019-01-03T18:17:56.600Z,10.77
2019-01-03T18:20:46.644Z,11.00
2019-01-03T18:23:36.375Z,11.30
2019-01-03T18:26:27.007Z,11.40
2019-01-03T18:29:16.898Z,14.70
2019-01-03T18:32:06.501Z,10.90
2019-01-03T18:34:56.807Z,11.20
2019-01-03T18:37:58.453Z,11.30
2019-01-03T18:40:48.491Z,11.63
2019-01-03T18:43:38.539Z,11.57
2019-01-03T18:46:28.330Z,12.83
2019-01-03T18:49:18.369Z,11.73
2019-01-03T18:52:09.504Z,12.63
2019-01-03T18:54:58.981Z,13.17
2019-01-03T18:57:49.253Z,11.13
2019-01-03T19:00:39.196Z,10.93
2019-01-03T19:03:28.930Z,15.17
2019-01-03T19:06:18.946Z,14.90
2019-01-03T19:09:09.174Z,14.20
2019-01-03T19:11:59.649Z,12.20
2019-01-03T19:14:49.799Z,12.37
2019-01-03T19:17:39.542Z,12.63
2019-01-03T19:20:29.792Z,12.77
2019-01-03T19:23:19.553Z,12.73
2019-01-03T19:26:11.084Z,11.13
2019-01-03T19:29:00.614Z,10.70
2019-01-03T19:31:50.328Z,10.70
2019-01-03T19:34:40.458Z,11.53
2019-01-03T19:37:30.696Z,11.07
2019-01-03T19:40:21.565Z,10.93
2019-01-03T19:43:11.145Z,11.47
2019-01-03T19:46:00.874Z,9.93
2019-01-03T19:49:09.907Z,10.60
2019-01-03T19:51:59.893Z,12.80
2019-01-03T19:54:49.391Z,12.07
2019-01-03T19:57:39.682Z,12.43
2019-01-03T20:00:48.626Z,10.90
2019-01-03T20:03:57.559Z,12.07
2019-01-03T20:06:47.369Z,10.27
2019-01-03T20:09:37.462Z,10.73
2019-01-03T20:12:27.678Z,10.87
2019-01-03T20:15:17.449Z,10.00
2019-01-03T20:18:26.372Z,11.77
2019-01-03T20:21:16.146Z,16.97
2019-01-03T20:24:05.995Z,15.73
2019-01-03T20:26:57.799Z,12.60
2019-01-03T20:29:47.762Z,11.00
2019-01-03T20:32:38.004Z,11.13
2019-01-03T20:35:27.749Z,13.03
2019-01-03T20:38:17.571Z,13.40
2019-01-03T20:41:07.144Z,13.83
2019-01-03T20:43:56.893Z,11.60
2019-01-03T20:46:46.683Z,12.37
2019-01-03T20:49:37.084Z,14.33
2019-01-03T20:52:28.883Z,12.37
2019-01-03T20:55:18.689Z,11.97
2019-01-03T20:58:08.443Z,16.83
2019-01-03T21:00:58.243Z,13.23
2019-01-03T21:03:48.192Z,12.83
2019-01-03T21:06:38.481Z,14.17
2019-01-03T21:09:28.194Z,13.33
2019-01-03T21:12:18.239Z,13.97
2019-01-03T21:15:10.409Z,13.57
2019-01-03T21:18:00.143Z,14.77
2019-01-03T21:20:49.861Z,15.80
2019-01-03T21:23:40.051Z,15.23
2019-01-03T21:26:30.083Z,15.37
2019-01-03T21:29:19.978Z,15.77
2019-01-03T21:32:09.709Z,17.13
2019-01-03T21:34:59.206Z,17.93
2019-01-03T21:40:31.974Z,17.10
2019-01-03T21:43:21.763Z,16.50
2019-01-03T21:46:12.076Z,18.07
2019-01-03T21:49:21.213Z,16.73
2019-01-03T21:52:28.380Z,17.10
2019-01-03T21:55:05.275Z,17.00
2019-01-03T21:57:55.236Z,18.70
2019-01-03T22:04:54.247Z,17.53
2019-01-03T22:08:07.066Z,17.20
2019-01-03T22:10:56.789Z,18.23
2019-01-03T22:13:47.585Z,17.60
2019-01-03T22:16:37.457Z,18.20
2019-01-03T22:19:26.883Z,17.83
2019-01-03T22:22:16.827Z,18.10
2019-01-03T22:25:06.831Z,18.23
2019-01-03T22:27:56.563Z,16.90
2019-01-03T22:30:47.147Z,22.07
2019-01-03T22:33:36.876Z,18.27
2019-01-03T22:36:26.819Z,17.27
2019-01-03T22:39:18.171Z,19.50
2019-01-03T22:42:07.801Z,19.37
2019-01-03T22:44:57.833Z,18.77
2019-01-03T22:47:47.921Z,20.27
2019-01-03T22:50:37.537Z,18.87
2019-01-03T22:53:27.289Z,18.83
2019-01-03T22:56:17.321Z,18.43
2019-01-03T22:59:07.004Z,19.97
2019-01-03T23:01:57.859Z,17.80
2019-01-03T23:04:49.354Z,20.87
2019-01-03T23:07:39.939Z,18.80
2019-01-03T23:10:29.908Z,18.80
2019-01-03T23:13:19.644Z,18.40
2019-01-03T23:16:09.783Z,21.00
2019-01-03T23:18:59.508Z,20.40
2019-01-03T23:21:49.254Z,18.23
2019-01-03T23:24:38.784Z,18.97
2019-01-03T23:27:28.529Z,19.67
2019-01-03T23:30:18.149Z,19.27
2019-01-03T23:33:07.955Z,20.33
2019-01-03T23:35:57.809Z,20.60
2019-01-03T23:38:47.526Z,19.80
2019-01-03T23:41:37.465Z,22.27
2019-01-03T23:44:26.955Z,19.53
2019-01-03T23:47:16.913Z,22.00
2019-01-03T23:50:08.722Z,20.67
2019-01-03T23:53:01.383Z,22.47
2019-01-03T23:56:33.104Z,20.57
2019-01-03T23:59:42.114Z,19.13
